sensor_id;sensor_type;location;lat;lon;timestamp;pressure;altitude;pressure_sealevel;temperature;humidity
68230;BME280;55048;52.220;5.160;2022-09-27T00:00:36;99607.63;;;11.90;80.46
68230;BME280;55048;52.220;5.160;2022-09-27T00:03:02;99598.34;;;11.72;80.95
68230;BME280;55048;52.220;5.160;2022-09-27T00:05:28;99580.56;;;11.63;80.69
68230;BME280;55048;52.220;5.160;2022-09-27T00:07:53;99621.50;;;11.82;80.55
68230;BME280;55048;52.220;5.160;2022-09-27T00:10:19;99602.31;;;11.80;80.46
68230;BME280;55048;52.220;5.160;2022-09-27T00:12:45;99607.38;;;11.87;80.29
68230;BME280;55048;52.220;5.160;2022-09-27T00:15:11;99596.47;;;11.73;79.94
68230;BME280;55048;52.220;5.160;2022-09-27T00:17:37;99599.16;;;11.73;79.80
68230;BME280;55048;52.220;5.160;2022-09-27T00:20:04;99596.22;;;11.69;79.83
68230;BME280;55048;52.220;5.160;2022-09-27T00:22:30;99620.13;;;11.80;79.73
68230;BME280;55048;52.220;5.160;2022-09-27T00:24:56;99608.97;;;11.83;79.80
68230;BME280;55048;52.220;5.160;2022-09-27T00:27:21;99576.78;;;11.69;79.60
68230;BME280;55048;52.220;5.160;2022-09-27T00:29:47;99599.16;;;11.73;79.59
68230;BME280;55048;52.220;5.160;2022-09-27T00:32:13;99603.66;;;11.83;79.54
68230;BME280;55048;52.220;5.160;2022-09-27T00:34:39;99597.00;;;11.80;79.44
68230;BME280;55048;52.220;5.160;2022-09-27T00:37:06;99564.31;;;11.59;79.28
68230;BME280;55048;52.220;5.160;2022-09-27T00:39:32;99559.31;;;11.53;78.96
68230;BME280;55048;52.220;5.160;2022-09-27T00:41:58;99569.91;;;11.63;79.05
68230;BME280;55048;52.220;5.160;2022-09-27T00:47:08;99610.56;;;11.84;79.10
68230;BME280;55048;52.220;5.160;2022-09-27T00:49:42;99611.34;;;11.84;78.83
68230;BME280;55048;52.220;5.160;2022-09-27T00:52:15;99620.44;;;11.83;78.40
68230;BME280;55048;52.220;5.160;2022-09-27T00:54:44;99601.81;;;11.73;78.81
68230;BME280;55048;52.220;5.160;2022-09-27T00:57:12;99611.94;;;11.76;78.66
68230;BME280;55048;52.220;5.160;2022-09-27T00:59:42;99615.63;;;11.80;78.59
68230;BME280;55048;52.220;5.160;2022-09-27T01:02:10;99600.25;;;11.67;78.60
68230;BME280;55048;52.220;5.160;2022-09-27T01:04:37;99573.66;;;11.52;78.59
68230;BME280;55048;52.220;5.160;2022-09-27T01:07:03;99615.44;;;11.66;78.77
68230;BME280;55048;52.220;5.160;2022-09-27T01:09:29;99620.22;;;11.64;78.69
68230;BME280;55048;52.220;5.160;2022-09-27T01:21:00;99636.72;;;11.71;78.82
68230;BME280;55048;52.220;5.160;2022-09-27T01:28:59;99614.69;;;11.50;79.23
68230;BME280;55048;52.220;5.160;2022-09-27T01:34:21;99629.84;;;11.55;79.09
68230;BME280;55048;52.220;5.160;2022-09-27T01:36:55;99619.19;;;11.55;79.47
68230;BME280;55048;52.220;5.160;2022-09-27T01:39:35;99622.66;;;11.56;79.44
68230;BME280;55048;52.220;5.160;2022-09-27T01:42:40;99601.38;;;11.45;79.40
68230;BME280;55048;52.220;5.160;2022-09-27T01:48:59;99611.75;;;11.52;79.20
68230;BME280;55048;52.220;5.160;2022-09-27T01:51:34;99603.78;;;11.42;79.17
68230;BME280;55048;52.220;5.160;2022-09-27T01:54:04;99579.09;;;11.26;79.24
68230;BME280;55048;52.220;5.160;2022-09-27T01:56:53;99591.31;;;11.32;79.09
68230;BME280;55048;52.220;5.160;2022-09-27T01:59:46;99606.72;;;11.45;79.16
68230;BME280;55048;52.220;5.160;2022-09-27T02:02:51;99599.84;;;11.34;79.07
68230;BME280;55048;52.220;5.160;2022-09-27T02:05:32;99618.19;;;11.41;79.13
68230;BME280;55048;52.220;5.160;2022-09-27T02:08:18;99599.03;;;11.34;79.41
68230;BME280;55048;52.220;5.160;2022-09-27T02:10:48;99601.97;;;11.32;79.61
68230;BME280;55048;52.220;5.160;2022-09-27T02:13:30;99621.38;;;11.43;79.49
68230;BME280;55048;52.220;5.160;2022-09-27T02:16:49;99622.16;;;11.48;79.38
68230;BME280;55048;52.220;5.160;2022-09-27T02:19:43;99618.94;;;11.46;79.24
68230;BME280;55048;52.220;5.160;2022-09-27T02:24:59;99629.38;;;11.38;79.55
68230;BME280;55048;52.220;5.160;2022-09-27T02:27:49;99626.97;;;11.36;79.62
68230;BME280;55048;52.220;5.160;2022-09-27T02:30:17;99621.13;;;11.39;79.70
68230;BME280;55048;52.220;5.160;2022-09-27T02:32:49;99579.16;;;11.11;79.48
68230;BME280;55048;52.220;5.160;2022-09-27T02:35:18;99621.66;;;11.36;79.36
68230;BME280;55048;52.220;5.160;2022-09-27T02:37:46;99617.69;;;11.34;79.42
68230;BME280;55048;52.220;5.160;2022-09-27T02:40:11;99624.03;;;11.33;79.34
68230;BME280;55048;52.220;5.160;2022-09-27T02:42:38;99604.41;;;11.18;79.13
68230;BME280;55048;52.220;5.160;2022-09-27T02:45:05;99629.94;;;11.30;79.06
68230;BME280;55048;52.220;5.160;2022-09-27T02:53:21;99619.03;;;11.26;79.08
68230;BME280;55048;52.220;5.160;2022-09-27T03:02:14;99617.97;;;11.22;79.19
68230;BME280;55048;52.220;5.160;2022-09-27T03:05:21;99620.34;;;11.29;79.06
68230;BME280;55048;52.220;5.160;2022-09-27T03:07:48;99599.63;;;11.20;79.03
68230;BME280;55048;52.220;5.160;2022-09-27T03:10:16;99593.75;;;11.13;79.02
68230;BME280;55048;52.220;5.160;2022-09-27T03:12:42;99592.44;;;11.16;79.08
68230;BME280;55048;52.220;5.160;2022-09-27T03:15:08;99609.16;;;11.32;78.86
68230;BME280;55048;52.220;5.160;2022-09-27T03:17:53;99607.56;;;11.31;78.95
68230;BME280;55048;52.220;5.160;2022-09-27T03:20:37;99596.69;;;11.22;78.98
68230;BME280;55048;52.220;5.160;2022-09-27T03:23:23;99607.84;;;11.29;79.11
68230;BME280;55048;52.220;5.160;2022-09-27T03:25:49;99625.66;;;11.34;79.02
68230;BME280;55048;52.220;5.160;2022-09-27T03:28:16;99620.03;;;11.40;79.02
68230;BME280;55048;52.220;5.160;2022-09-27T03:30:44;99587.38;;;11.19;79.03
68230;BME280;55048;52.220;5.160;2022-09-27T03:33:13;99600.91;;;11.33;79.17
68230;BME280;55048;52.220;5.160;2022-09-27T03:35:43;99616.06;;;11.43;79.09
68230;BME280;55048;52.220;5.160;2022-09-27T03:38:09;99624.84;;;11.43;79.16
68230;BME280;55048;52.220;5.160;2022-09-27T03:40:35;99620.59;;;11.42;79.05
68230;BME280;55048;52.220;5.160;2022-09-27T03:43:01;99615.25;;;11.37;79.15
68230;BME280;55048;52.220;5.160;2022-09-27T03:45:28;99619.28;;;11.30;79.09
68230;BME280;55048;52.220;5.160;2022-09-27T03:47:55;99619.03;;;11.26;79.00
68230;BME280;55048;52.220;5.160;2022-09-27T03:50:21;99623.84;;;11.24;78.96
68230;BME280;55048;52.220;5.160;2022-09-27T03:52:46;99618.78;;;11.17;78.95
68230;BME280;55048;52.220;5.160;2022-09-27T03:55:12;99637.63;;;11.31;79.07
68230;BME280;55048;52.220;5.160;2022-09-27T03:57:38;99608.94;;;11.13;79.20
68230;BME280;55048;52.220;5.160;2022-09-27T04:00:05;99610.53;;;11.14;79.33
68230;BME280;55048;52.220;5.160;2022-09-27T04:02:51;99634.47;;;11.24;78.91
68230;BME280;55048;52.220;5.160;2022-09-27T04:05:26;99638.72;;;11.25;79.14
68230;BME280;55048;52.220;5.160;2022-09-27T04:08:05;99607.34;;;11.12;79.28
68230;BME280;55048;52.220;5.160;2022-09-27T04:10:32;99611.84;;;11.16;79.10
68230;BME280;55048;52.220;5.160;2022-09-27T04:12:58;99620.88;;;11.26;79.45
68230;BME280;55048;52.220;5.160;2022-09-27T04:15:26;99596.44;;;11.08;79.34
68230;BME280;55048;52.220;5.160;2022-09-27T04:18:10;99602.56;;;11.09;79.34
68230;BME280;55048;52.220;5.160;2022-09-27T04:21:10;99612.41;;;11.08;79.13
68230;BME280;55048;52.220;5.160;2022-09-27T04:23:42;99606.56;;;11.01;79.08
68230;BME280;55048;52.220;5.160;2022-09-27T04:26:08;99624.91;;;11.08;78.97
68230;BME280;55048;52.220;5.160;2022-09-27T04:28:59;99621.47;;;10.97;79.23
68230;BME280;55048;52.220;5.160;2022-09-27T04:31:25;99631.03;;;11.03;78.91
68230;BME280;55048;52.220;5.160;2022-09-27T04:34:13;99618.56;;;10.93;79.02
68230;BME280;55048;52.220;5.160;2022-09-27T04:36:39;99603.13;;;10.80;79.13
68230;BME280;55048;52.220;5.160;2022-09-27T04:39:08;99634.00;;;10.96;79.09
68230;BME280;55048;52.220;5.160;2022-09-27T04:41:39;99630.78;;;10.94;78.94
68230;BME280;55048;52.220;5.160;2022-09-27T04:45:33;99508.53;;;10.03;78.79
68230;BME280;55048;52.220;5.160;2022-09-27T04:48:25;99576.03;;;10.47;79.02
68230;BME280;55048;52.220;5.160;2022-09-27T04:54:28;99527.94;;;10.29;79.18
68230;BME280;55048;52.220;5.160;2022-09-27T04:57:29;99600.47;;;10.80;79.25
68230;BME280;55048;52.220;5.160;2022-09-27T05:15:53;99630.00;;;10.89;79.27
68230;BME280;55048;52.220;5.160;2022-09-27T05:18:43;99564.06;;;10.35;79.24
68230;BME280;55048;52.220;5.160;2022-09-27T05:22:32;99620.97;;;10.64;79.61
68230;BME280;55048;52.220;5.160;2022-09-27T05:25:20;99619.38;;;10.68;79.71
68230;BME280;55048;52.220;5.160;2022-09-27T05:27:52;99537.75;;;10.13;80.07
68230;BME280;55048;52.220;5.160;2022-09-27T05:30:18;99614.59;;;10.55;79.95
68230;BME280;55048;52.220;5.160;2022-09-27T05:32:47;99571.78;;;10.36;80.02
68230;BME280;55048;52.220;5.160;2022-09-27T05:35:53;99608.47;;;10.60;79.65
68230;BME280;55048;52.220;5.160;2022-09-27T05:38:22;99632.38;;;10.80;80.03
68230;BME280;55048;52.220;5.160;2022-09-27T05:40:49;99614.06;;;10.68;79.74
68230;BME280;55048;52.220;5.160;2022-09-27T05:43:17;99633.97;;;10.81;79.63
68230;BME280;55048;52.220;5.160;2022-09-27T05:45:43;99627.34;;;10.79;79.92
68230;BME280;55048;52.220;5.160;2022-09-27T05:48:10;99648.09;;;10.92;79.64
68230;BME280;55048;52.220;5.160;2022-09-27T05:50:43;99621.75;;;10.80;79.67
68230;BME280;55048;52.220;5.160;2022-09-27T05:53:09;99629.19;;;10.88;79.47
68230;BME280;55048;52.220;5.160;2022-09-27T05:55:35;99625.22;;;10.81;79.92
68230;BME280;55048;52.220;5.160;2022-09-27T05:58:03;99666.72;;;10.97;79.92
68230;BME280;55048;52.220;5.160;2022-09-27T06:00:37;99643.31;;;10.73;80.44
68230;BME280;55048;52.220;5.160;2022-09-27T06:03:11;99661.41;;;10.87;80.19
68230;BME280;55048;52.220;5.160;2022-09-27T06:05:55;99657.91;;;10.86;80.44
68230;BME280;55048;52.220;5.160;2022-09-27T06:08:34;99643.81;;;10.76;80.38
68230;BME280;55048;52.220;5.160;2022-09-27T06:11:04;99650.47;;;10.88;80.39
68230;BME280;55048;52.220;5.160;2022-09-27T06:13:31;99658.19;;;10.95;80.44
68230;BME280;55048;52.220;5.160;2022-09-27T06:16:09;99664.03;;;10.97;80.63
68230;BME280;55048;52.220;5.160;2022-09-27T06:18:36;99650.75;;;10.92;80.42
68230;BME280;55048;52.220;5.160;2022-09-27T06:21:03;99660.03;;;11.05;80.38
68230;BME280;55048;52.220;5.160;2022-09-27T06:23:29;99619.38;;;10.84;80.23
68230;BME280;55048;52.220;5.160;2022-09-27T06:26:03;99666.16;;;11.15;80.47
68230;BME280;55048;52.220;5.160;2022-09-27T06:28:47;99642.75;;;11.07;80.41
68230;BME280;55048;52.220;5.160;2022-09-27T06:31:15;99675.44;;;11.18;80.53
68230;BME280;55048;52.220;5.160;2022-09-27T06:33:51;99658.19;;;11.05;80.67
68230;BME280;55048;52.220;5.160;2022-09-27T06:36:17;99687.69;;;11.24;80.60
68230;BME280;55048;52.220;5.160;2022-09-27T06:38:42;99665.59;;;11.13;80.59
68230;BME280;55048;52.220;5.160;2022-09-27T06:41:15;99653.38;;;11.07;80.54
68230;BME280;55048;52.220;5.160;2022-09-27T06:43:50;99678.09;;;11.23;80.66
68230;BME280;55048;52.220;5.160;2022-09-27T06:46:30;99680.75;;;11.28;80.58
68230;BME280;55048;52.220;5.160;2022-09-27T06:49:25;99674.38;;;11.29;80.53
68230;BME280;55048;52.220;5.160;2022-09-27T06:51:50;99644.59;;;11.12;80.59
68230;BME280;55048;52.220;5.160;2022-09-27T06:54:17;99675.16;;;11.40;80.50
68230;BME280;55048;52.220;5.160;2022-09-27T06:56:43;99664.50;;;11.40;80.76
68230;BME280;55048;52.220;5.160;2022-09-27T06:59:08;99657.31;;;11.40;80.50
68230;BME280;55048;52.220;5.160;2022-09-27T07:02:11;99662.34;;;11.47;80.93
68230;BME280;55048;52.220;5.160;2022-09-27T07:04:58;99686.31;;;11.57;80.68
68230;BME280;55048;52.220;5.160;2022-09-27T07:07:44;99678.31;;;11.57;80.95
68230;BME280;55048;52.220;5.160;2022-09-27T07:10:10;99698.00;;;11.66;80.71
68230;BME280;55048;52.220;5.160;2022-09-27T07:12:36;99680.44;;;11.55;80.87
68230;BME280;55048;52.220;5.160;2022-09-27T07:15:03;99662.34;;;11.52;80.84
68230;BME280;55048;52.220;5.160;2022-09-27T07:17:28;99672.72;;;11.54;81.05
68230;BME280;55048;52.220;5.160;2022-09-27T07:19:54;99684.94;;;11.65;81.14
68230;BME280;55048;52.220;5.160;2022-09-27T07:22:20;99691.56;;;11.72;80.91
68230;BME280;55048;52.220;5.160;2022-09-27T07:24:52;99675.63;;;11.67;80.96
68230;BME280;55048;52.220;5.160;2022-09-27T07:27:18;99662.06;;;11.59;81.15
68230;BME280;55048;52.220;5.160;2022-09-27T07:29:44;99689.16;;;11.76;81.08
68230;BME280;55048;52.220;5.160;2022-09-27T07:32:09;99703.56;;;11.85;80.91
68230;BME280;55048;52.220;5.160;2022-09-27T07:34:36;99689.16;;;11.81;81.17
68230;BME280;55048;52.220;5.160;2022-09-27T07:37:02;99700.59;;;11.87;81.44
68230;BME280;55048;52.220;5.160;2022-09-27T07:39:31;99679.81;;;11.79;81.08
68230;BME280;55048;52.220;5.160;2022-09-27T07:41:57;99674.50;;;11.73;80.92
68230;BME280;55048;52.220;5.160;2022-09-27T07:44:22;99689.94;;;11.82;80.96
68230;BME280;55048;52.220;5.160;2022-09-27T07:47:08;99683.03;;;11.75;80.89
68230;BME280;55048;52.220;5.160;2022-09-27T07:50:01;99707.25;;;11.94;81.17
68230;BME280;55048;52.220;5.160;2022-09-27T07:52:59;99713.09;;;11.96;80.96
68230;BME280;55048;52.220;5.160;2022-09-27T07:55:51;99704.84;;;11.93;81.38
68230;BME280;55048;52.220;5.160;2022-09-27T07:58:20;99702.75;;;11.90;81.11
68230;BME280;55048;52.220;5.160;2022-09-27T08:00:48;99699.28;;;11.89;81.45
68230;BME280;55048;52.220;5.160;2022-09-27T08:03:15;99685.94;;;11.84;81.47
68230;BME280;55048;52.220;5.160;2022-09-27T08:05:43;99719.13;;;12.12;81.45
68230;BME280;55048;52.220;5.160;2022-09-27T08:08:08;99680.31;;;11.96;81.33
68230;BME280;55048;52.220;5.160;2022-09-27T08:10:34;99714.84;;;12.21;81.39
68230;BME280;55048;52.220;5.160;2022-09-27T08:13:01;99706.28;;;12.24;81.04
68230;BME280;55048;52.220;5.160;2022-09-27T08:15:31;99741.94;;;12.39;81.54
68230;BME280;55048;52.220;5.160;2022-09-27T08:17:56;99710.66;;;12.05;81.03
68230;BME280;55048;52.220;5.160;2022-09-27T08:20:45;99731.94;;;12.15;81.12
68230;BME280;55048;52.220;5.160;2022-09-27T08:23:37;99743.34;;;12.21;81.19
68230;BME280;55048;52.220;5.160;2022-09-27T08:26:22;99748.69;;;12.21;81.28
68230;BME280;55048;52.220;5.160;2022-09-27T08:28:54;99752.69;;;12.23;81.22
68230;BME280;55048;52.220;5.160;2022-09-27T08:31:23;99729.81;;;12.12;81.28
68230;BME280;55048;52.220;5.160;2022-09-27T08:33:51;99732.72;;;12.16;81.30
68230;BME280;55048;52.220;5.160;2022-09-27T08:36:18;99743.59;;;12.30;81.58
68230;BME280;55048;52.220;5.160;2022-09-27T08:38:50;99738.81;;;12.27;81.14
68230;BME280;55048;52.220;5.160;2022-09-27T08:44:27;99726.06;;;12.18;81.00
68230;BME280;55048;52.220;5.160;2022-09-27T08:47:15;99737.50;;;12.19;80.75
68230;BME280;55048;52.220;5.160;2022-09-27T08:52:23;99757.75;;;12.25;80.49
68230;BME280;55048;52.220;5.160;2022-09-27T08:54:52;99751.38;;;12.16;80.30
68230;BME280;55048;52.220;5.160;2022-09-27T08:57:21;99750.09;;;12.08;80.31
68230;BME280;55048;52.220;5.160;2022-09-27T09:00:10;99753.81;;;12.07;80.55
68230;BME280;55048;52.220;5.160;2022-09-27T09:02:37;99746.63;;;12.03;80.34
68230;BME280;55048;52.220;5.160;2022-09-27T09:05:08;99742.38;;;12.02;80.05
68230;BME280;55048;52.220;5.160;2022-09-27T09:08:08;99717.19;;;11.58;80.15
68230;BME280;55048;52.220;5.160;2022-09-27T09:10:59;99755.97;;;12.00;80.20
68230;BME280;55048;52.220;5.160;2022-09-27T09:13:56;99754.63;;;12.03;80.66
68230;BME280;55048;52.220;5.160;2022-09-27T09:19:25;99756.72;;;12.11;80.24
68230;BME280;55048;52.220;5.160;2022-09-27T09:27:30;99781.22;;;12.23;79.90
68230;BME280;55048;52.220;5.160;2022-09-27T09:30:21;99776.13;;;12.21;79.80
68230;BME280;55048;52.220;5.160;2022-09-27T09:33:12;99781.25;;;12.18;79.62
68230;BME280;55048;52.220;5.160;2022-09-27T09:35:44;99760.22;;;12.01;79.32
68230;BME280;55048;52.220;5.160;2022-09-27T09:38:23;99769.00;;;12.07;79.54
68230;BME280;55048;52.220;5.160;2022-09-27T09:41:14;99791.09;;;12.12;79.62
68230;BME280;55048;52.220;5.160;2022-09-27T09:43:46;99783.69;;;12.04;79.81
68230;BME280;55048;52.220;5.160;2022-09-27T09:46:26;99778.91;;;11.96;79.90
68230;BME280;55048;52.220;5.160;2022-09-27T09:49:13;99797.53;;;12.01;79.43
68230;BME280;55048;52.220;5.160;2022-09-27T09:51:55;99783.41;;;12.06;79.53
68230;BME280;55048;52.220;5.160;2022-09-27T09:54:29;99787.41;;;11.98;79.98
68230;BME280;55048;52.220;5.160;2022-09-27T09:57:02;99787.44;;;11.88;80.37
68230;BME280;55048;52.220;5.160;2022-09-27T09:59:37;99770.69;;;11.82;79.93
68230;BME280;55048;52.220;5.160;2022-09-27T10:02:31;99786.13;;;11.90;80.26
68230;BME280;55048;52.220;5.160;2022-09-27T10:05:05;99778.41;;;11.94;80.38
68230;BME280;55048;52.220;5.160;2022-09-27T10:07:37;99755.22;;;11.84;80.18
68230;BME280;55048;52.220;5.160;2022-09-27T10:10:04;99757.31;;;11.92;80.16
68230;BME280;55048;52.220;5.160;2022-09-27T10:12:50;99759.22;;;11.87;79.97
68230;BME280;55048;52.220;5.160;2022-09-27T10:15:22;99750.16;;;11.83;80.00
68230;BME280;55048;52.220;5.160;2022-09-27T10:17:50;99760.78;;;11.93;79.77
68230;BME280;55048;52.220;5.160;2022-09-27T10:20:48;99757.84;;;12.05;79.79
68230;BME280;55048;52.220;5.160;2022-09-27T10:23:20;99756.47;;;12.07;79.42
68230;BME280;55048;52.220;5.160;2022-09-27T10:26:05;99722.97;;;11.91;79.16
68230;BME280;55048;52.220;5.160;2022-09-27T10:28:37;99738.34;;;12.14;78.93
68230;BME280;55048;52.220;5.160;2022-09-27T10:31:09;99756.38;;;12.33;78.53
68230;BME280;55048;52.220;5.160;2022-09-27T10:33:59;99765.41;;;12.42;78.45
68230;BME280;55048;52.220;5.160;2022-09-27T10:36:30;99771.75;;;12.51;78.27
68230;BME280;55048;52.220;5.160;2022-09-27T10:38:59;99780.84;;;12.50;77.93
68230;BME280;55048;52.220;5.160;2022-09-27T10:41:37;99771.50;;;12.47;78.37
68230;BME280;55048;52.220;5.160;2022-09-27T10:44:30;99771.28;;;12.39;78.26
68230;BME280;55048;52.220;5.160;2022-09-27T10:47:24;99764.63;;;12.36;78.47
68230;BME280;55048;52.220;5.160;2022-09-27T10:50:16;99770.75;;;12.37;78.58
68230;BME280;55048;52.220;5.160;2022-09-27T10:53:14;99777.19;;;12.36;78.99
68230;BME280;55048;52.220;5.160;2022-09-27T10:55:46;99759.13;;;12.17;78.73
68230;BME280;55048;52.220;5.160;2022-09-27T10:58:38;99773.25;;;12.18;78.96
68230;BME280;55048;52.220;5.160;2022-09-27T11:01:09;99769.81;;;12.02;79.21
68230;BME280;55048;52.220;5.160;2022-09-27T11:03:56;99785.00;;;12.07;79.21
68230;BME280;55048;52.220;5.160;2022-09-27T11:08:52;99787.72;;;11.91;79.55
68230;BME280;55048;52.220;5.160;2022-09-27T11:11:26;99774.94;;;11.83;79.50
68230;BME280;55048;52.220;5.160;2022-09-27T11:14:00;99779.97;;;11.95;79.59
68230;BME280;55048;52.220;5.160;2022-09-27T11:21:55;99738.97;;;11.81;79.70
68230;BME280;55048;52.220;5.160;2022-09-27T11:27:34;99751.47;;;11.95;79.68
68230;BME280;55048;52.220;5.160;2022-09-27T11:33:27;99775.09;;;12.22;79.29
68230;BME280;55048;52.220;5.160;2022-09-27T11:36:04;99742.66;;;12.00;79.31
68230;BME280;55048;52.220;5.160;2022-09-27T11:39:10;99770.56;;;12.18;79.41
68230;BME280;55048;52.220;5.160;2022-09-27T11:53:04;99764.13;;;12.29;78.95
68230;BME280;55048;52.220;5.160;2022-09-27T11:58:30;99782.81;;;12.24;78.76
68230;BME280;55048;52.220;5.160;2022-09-27T12:01:22;99772.19;;;12.14;78.71
68230;BME280;55048;52.220;5.160;2022-09-27T12:09:19;99779.69;;;12.02;78.94
68230;BME280;55048;52.220;5.160;2022-09-27T12:11:54;99767.19;;;11.92;79.03
68230;BME280;55048;52.220;5.160;2022-09-27T12:14:39;99776.75;;;11.98;79.06
68230;BME280;55048;52.220;5.160;2022-09-27T12:17:17;99769.06;;;11.86;79.06
68230;BME280;55048;52.220;5.160;2022-09-27T12:19:52;99746.72;;;11.67;78.91
68230;BME280;55048;52.220;5.160;2022-09-27T12:22:38;99757.09;;;11.68;79.27
68230;BME280;55048;52.220;5.160;2022-09-27T12:25:13;99749.13;;;11.63;79.06
68230;BME280;55048;52.220;5.160;2022-09-27T12:27:59;99762.94;;;11.65;79.28
68230;BME280;55048;52.220;5.160;2022-09-27T12:30:28;99762.69;;;11.67;79.27
68230;BME280;55048;52.220;5.160;2022-09-27T12:33:03;99778.66;;;11.72;79.44
68230;BME280;55048;52.220;5.160;2022-09-27T12:35:35;99778.94;;;11.70;79.04
68230;BME280;55048;52.220;5.160;2022-09-27T12:38:12;99780.81;;;11.60;79.66
68230;BME280;55048;52.220;5.160;2022-09-27T12:40:47;99767.78;;;11.58;79.49
68230;BME280;55048;52.220;5.160;2022-09-27T12:43:20;99748.84;;;11.60;79.36
68230;BME280;55048;52.220;5.160;2022-09-27T12:48:27;99766.94;;;11.73;79.37
68230;BME280;55048;52.220;5.160;2022-09-27T12:51:04;99754.72;;;11.62;79.15
68230;BME280;55048;52.220;5.160;2022-09-27T12:53:45;99745.94;;;11.61;79.45
68230;BME280;55048;52.220;5.160;2022-09-27T12:59:06;99773.06;;;11.84;79.20
68230;BME280;55048;52.220;5.160;2022-09-27T13:05:00;99754.16;;;11.75;79.12
68230;BME280;55048;52.220;5.160;2022-09-27T13:12:52;99755.22;;;11.84;79.25
68230;BME280;55048;52.220;5.160;2022-09-27T13:15:25;99756.78;;;11.95;79.05
68230;BME280;55048;52.220;5.160;2022-09-27T13:17:57;99727.75;;;11.89;78.97
68230;BME280;55048;52.220;5.160;2022-09-27T13:34:47;99747.78;;;13.19;76.74
68230;BME280;55048;52.220;5.160;2022-09-27T13:37:52;99739.69;;;13.35;75.94
68230;BME280;55048;52.220;5.160;2022-09-27T13:40:33;99733.88;;;13.57;75.71
68230;BME280;55048;52.220;5.160;2022-09-27T13:43:35;99732.16;;;13.66;74.81
68230;BME280;55048;52.220;5.160;2022-09-27T13:46:28;99727.00;;;13.74;74.63
68230;BME280;55048;52.220;5.160;2022-09-27T13:49:02;99716.78;;;13.82;74.05
68230;BME280;55048;52.220;5.160;2022-09-27T13:51:53;99688.63;;;13.41;72.02
68230;BME280;55048;52.220;5.160;2022-09-27T13:54:37;99721.59;;;13.56;72.87
68230;BME280;55048;52.220;5.160;2022-09-27T14:00:05;99699.50;;;13.50;73.74
68230;BME280;55048;52.220;5.160;2022-09-27T14:05:33;99691.28;;;13.41;73.29
68230;BME280;55048;52.220;5.160;2022-09-27T14:08:02;99702.16;;;13.50;73.70
68230;BME280;55048;52.220;5.160;2022-09-27T14:10:29;99711.38;;;13.39;73.71
68230;BME280;55048;52.220;5.160;2022-09-27T14:12:57;99689.06;;;13.19;74.16
68230;BME280;55048;52.220;5.160;2022-09-27T14:15:27;99687.66;;;12.98;74.57
68230;BME280;55048;52.220;5.160;2022-09-27T14:17:54;99736.69;;;13.07;74.95
68230;BME280;55048;52.220;5.160;2022-09-27T14:22:58;99734.63;;;12.60;76.04
68230;BME280;55048;52.220;5.160;2022-09-27T14:25:29;99715.53;;;12.42;76.51
68230;BME280;55048;52.220;5.160;2022-09-27T14:27:55;99683.84;;;12.31;76.43
68230;BME280;55048;52.220;5.160;2022-09-27T14:30:29;99701.47;;;12.32;76.32
68230;BME280;55048;52.220;5.160;2022-09-27T14:33:28;99697.97;;;12.36;76.81
68230;BME280;55048;52.220;5.160;2022-09-27T14:35:58;99692.69;;;12.31;76.48
68230;BME280;55048;52.220;5.160;2022-09-27T14:38:43;99691.28;;;12.39;76.45
68230;BME280;55048;52.220;5.160;2022-09-27T14:41:18;99689.09;;;12.51;76.40
68230;BME280;55048;52.220;5.160;2022-09-27T14:43:45;99648.41;;;12.30;76.35
68230;BME280;55048;52.220;5.160;2022-09-27T14:46:27;99669.59;;;12.56;76.24
68230;BME280;55048;52.220;5.160;2022-09-27T14:48:52;99667.13;;;12.64;76.08
68230;BME280;55048;52.220;5.160;2022-09-27T14:51:25;99659.09;;;12.69;76.01
68230;BME280;55048;52.220;5.160;2022-09-27T14:53:54;99667.75;;;12.85;75.83
68230;BME280;55048;52.220;5.160;2022-09-27T14:56:28;99659.84;;;12.75;75.44
68230;BME280;55048;52.220;5.160;2022-09-27T15:01:37;99642.50;;;12.72;75.39
68230;BME280;55048;52.220;5.160;2022-09-27T15:04:12;99643.09;;;12.69;75.46
68230;BME280;55048;52.220;5.160;2022-09-27T15:06:39;99649.16;;;12.75;75.47
68230;BME280;55048;52.220;5.160;2022-09-27T15:09:05;99685.31;;;12.91;75.58
68230;BME280;55048;52.220;5.160;2022-09-27T15:11:31;99663.78;;;12.83;75.77
68230;BME280;55048;52.220;5.160;2022-09-27T15:13:59;99670.13;;;12.87;75.79
68230;BME280;55048;52.220;5.160;2022-09-27T15:16:27;99672.28;;;12.85;75.68
68230;BME280;55048;52.220;5.160;2022-09-27T15:19:10;99672.63;;;12.78;75.83
68230;BME280;55048;52.220;5.160;2022-09-27T15:21:37;99656.38;;;12.74;75.95
68230;BME280;55048;52.220;5.160;2022-09-27T15:24:04;99663.28;;;12.75;76.08
68230;BME280;55048;52.220;5.160;2022-09-27T15:26:36;99641.50;;;12.63;76.56
68230;BME280;55048;52.220;5.160;2022-09-27T15:29:04;99610.44;;;12.48;76.45
68230;BME280;55048;52.220;5.160;2022-09-27T15:31:34;99636.75;;;12.60;76.71
68230;BME280;55048;52.220;5.160;2022-09-27T15:34:01;99644.47;;;12.62;76.69
68230;BME280;55048;52.220;5.160;2022-09-27T15:39:15;99635.75;;;12.51;77.53
68230;BME280;55048;52.220;5.160;2022-09-27T15:44:49;99647.97;;;12.57;78.52
68230;BME280;55048;52.220;5.160;2022-09-27T15:52:52;99648.50;;;12.59;78.42
68230;BME280;55048;52.220;5.160;2022-09-27T15:55:22;99630.66;;;12.55;78.70
68230;BME280;55048;52.220;5.160;2022-09-27T15:57:56;99629.84;;;12.54;78.57
68230;BME280;55048;52.220;5.160;2022-09-27T16:00:24;99622.13;;;12.52;78.88
68230;BME280;55048;52.220;5.160;2022-09-27T16:02:49;99630.56;;;12.65;79.05
68230;BME280;55048;52.220;5.160;2022-09-27T16:05:14;99608.00;;;12.52;79.05
68230;BME280;55048;52.220;5.160;2022-09-27T16:07:40;99613.84;;;12.54;79.44
68230;BME280;55048;52.220;5.160;2022-09-27T16:10:28;99628.78;;;12.55;80.28
68230;BME280;55048;52.220;5.160;2022-09-27T16:12:55;99616.00;;;12.52;79.52
68230;BME280;55048;52.220;5.160;2022-09-27T16:15:20;99622.47;;;12.46;79.61
68230;BME280;55048;52.220;5.160;2022-09-27T16:17:45;99634.91;;;12.56;79.50